KASL/ASL METAR and TAF weather

Enter ICAO airport designator
Station Type Date Time Source
KASL METAR 2019/04/25 01:35 UTC NOAA

KASL 250135Z AUTO 00000KT 5SM SCT026 BKN045 OVC090 20/19 A2980 RMK AO1 P0008 T01970186


Station Type Date Time Source
KASL Decoded METAR 2019/04/25 01:35 UTC NOAA

Station name not available
Apr 24, 2019 - 09:35 PM EDT / 2019.04.25 0135 UTC
Wind: Calm:0
Visibility: 5 mile(s):0
Sky conditions: overcast
Precipitation last hour: 0.08 inches
Temperature: 67.5 F (19.7 C)
Dew Point: 65.5 F (18.6 C)
Relative Humidity: 93%
Pressure (altimeter): 29.8 in. Hg (1009 hPa)
ob: KASL 250135Z AUTO 00000KT 5SM SCT026 BKN045 OVC090 20/19 A2980 RMK AO1 P0008 T01970186
cycle: 1

Station Type Date Time Source
KASL TAF UTC NOAA

Error!

Example: see airport list